Lyman, Washington
Current Conditions -  °F | °C
As of 12:15 PM on Sunday 25 Jan 2015 (Local Time) from KBVS Reporting Station
Clear Clear  
Wind Chill: 14°   Ceiling: Unl
Heat Index: 14°   Visibility: 10mi
Dew Point: 12°   Wind: 12mph
Humidity: 88%   Direction: 30°NNE
Pressure: 30.15"   Gusts: NA
Location:  48.53°N, 122.06°W
Report Text: KBVS 252015Z AUTO 03010KT 10SM CLR 14/12 A3015 RMK A01 P000
Loading
Personal Weather Stations






























Interactive Weather Map New forecast layout! Learn more

10-Day Weather Forecast

Advertisements
Track Severe Weather on mobile